Time,TemperatureF,DewpointF,PressureIn,WindDirection,WindDirectionDegrees,WindSpeedMPH,WindSpeedGustMPH,Humidity,HourlyPrecipIn,Conditions,Clouds,dailyrainin,SolarRadiationWatts/m^2,SoftwareType,DateUTC
2013-07-06 00:02:00,82.3,75.0,30.04,West,263,10.0,16.0,79,0.00,,,0.00,0,weatherlink.com 1.10,2013-07-06 04:02:00,
2013-07-06 00:17:00,82.1,75.0,30.05,West,260,6.0,13.0,79,0.00,,,0.00,0,weatherlink.com 1.10,2013-07-06 04:17:00,
2013-07-06 00:32:00,81.9,75.0,30.05,WSW,248,7.0,12.0,79,0.00,,,0.00,0,weatherlink.com 1.10,2013-07-06 04:32:00,
2013-07-06 00:47:00,81.6,75.0,30.06,West,265,8.0,12.0,79,0.00,,,0.00,0,weatherlink.com 1.10,2013-07-06 04:47:00,
2013-07-06 01:02:00,81.2,75.0,30.06,WSW,255,0.0,9.0,80,0.00,,,0.00,0,weatherlink.com 1.10,2013-07-06 05:02:00,
2013-07-06 01:17:00,81.1,74.0,30.06,West,271,5.0,14.0,80,0.00,,,0.00,0,weatherlink.com 1.10,2013-07-06 05:17:00,
2013-07-06 01:32:00,81.1,74.0,30.05,WSW,246,1.0,10.0,80,0.00,,,0.00,0,weatherlink.com 1.10,2013-07-06 05:32:00,
2013-07-06 01:48:00,81.0,74.0,30.06,West,259,0.0,11.0,80,0.00,,,0.00,0,weatherlink.com 1.10,2013-07-06 05:48:00,
2013-07-06 02:02:00,80.8,75.0,30.05,WSW,245,1.0,9.0,81,0.00,,,0.00,0,weatherlink.com 1.10,2013-07-06 06:02:00,
2013-07-06 02:17:00,80.7,74.0,30.04,WSW,242,5.0,9.0,80,0.00,,,0.00,0,weatherlink.com 1.10,2013-07-06 06:17:00,
2013-07-06 02:32:00,80.3,74.0,30.05,WSW,243,5.0,9.0,81,0.00,,,0.00,0,weatherlink.com 1.10,2013-07-06 06:32:00,
2013-07-06 02:47:00,79.6,74.0,30.05,WSW,244,0.0,9.0,82,0.00,,,0.00,0,weatherlink.com 1.10,2013-07-06 06:47:00,
2013-07-06 03:03:00,78.9,73.0,30.05,WSW,242,8.0,8.0,83,0.00,,,0.00,0,weatherlink.com 1.10,2013-07-06 07:03:00,
2013-07-06 03:18:00,78.8,74.0,30.05,WSW,251,1.0,9.0,84,0.00,,,0.00,0,weatherlink.com 1.10,2013-07-06 07:18:00,
2013-07-06 03:32:00,79.0,74.0,30.05,WSW,245,1.0,9.0,83,0.00,,,0.00,0,weatherlink.com 1.10,2013-07-06 07:32:00,
2013-07-06 03:47:00,79.0,74.0,30.05,SW,234,4.0,12.0,83,0.00,,,0.00,0,weatherlink.com 1.10,2013-07-06 07:47:00,
2013-07-06 04:03:00,78.8,73.0,30.05,WSW,239,3.0,9.0,83,0.00,,,0.00,0,weatherlink.com 1.10,2013-07-06 08:03:00,
2013-07-06 04:18:00,78.2,73.0,30.04,WSW,239,0.0,5.0,83,0.00,,,0.00,0,weatherlink.com 1.10,2013-07-06 08:18:00,
2013-07-06 04:33:00,78.0,73.0,30.05,WSW,240,2.0,8.0,85,0.00,,,0.00,0,weatherlink.com 1.10,2013-07-06 08:33:00,
2013-07-06 04:48:00,78.3,73.0,30.04,West,263,6.0,13.0,84,0.00,,,0.00,0,weatherlink.com 1.10,2013-07-06 08:48:00,
2013-07-06 05:03:00,78.6,73.0,30.04,WSW,245,3.0,9.0,84,0.00,,,0.00,0,weatherlink.com 1.10,2013-07-06 09:03:00,
2013-07-06 05:18:00,78.6,73.0,30.05,West,263,7.0,9.0,84,0.00,,,0.00,0,weatherlink.com 1.10,2013-07-06 09:18:00,
2013-07-06 05:33:00,78.6,73.0,30.05,West,262,5.0,10.0,84,0.00,,,0.00,14,weatherlink.com 1.10,2013-07-06 09:33:00,
2013-07-06 05:48:00,78.7,74.0,30.05,West,261,2.0,9.0,84,0.00,,,0.00,23,weatherlink.com 1.10,2013-07-06 09:48:00,
2013-07-06 06:03:00,78.9,73.0,30.05,West,259,4.0,7.0,83,0.00,,,0.00,33,weatherlink.com 1.10,2013-07-06 10:03:00,
2013-07-06 06:18:00,79.1,74.0,30.05,West,261,3.0,8.0,83,0.00,,,0.00,44,weatherlink.com 1.10,2013-07-06 10:18:00,
2013-07-06 06:33:00,79.7,74.0,30.06,WSW,256,1.0,6.0,82,0.00,,,0.00,54,weatherlink.com 1.10,2013-07-06 10:33:00,
2013-07-06 06:48:00,80.9,74.0,30.06,WSW,257,4.0,12.0,80,0.00,,,0.00,151,weatherlink.com 1.10,2013-07-06 10:48:00,
2013-07-06 07:03:00,83.0,76.0,30.05,WSW,250,0.0,8.0,78,0.00,,,0.00,137,weatherlink.com 1.10,2013-07-06 11:03:00,
2013-07-06 07:18:00,83.6,75.0,30.05,West,269,0.0,12.0,76,0.00,,,0.00,260,weatherlink.com 1.10,2013-07-06 11:18:00,
2013-07-06 07:33:00,85.3,76.0,30.05,West,259,4.0,11.0,74,0.00,,,0.00,306,weatherlink.com 1.10,2013-07-06 11:33:00,
2013-07-06 07:48:00,87.0,77.0,30.05,WSW,258,1.0,11.0,71,0.00,,,0.00,352,weatherlink.com 1.10,2013-07-06 11:48:00,
2013-07-06 08:03:00,88.6,76.0,30.06,West,278,0.0,11.0,67,0.00,,,0.00,403,weatherlink.com 1.10,2013-07-06 12:03:00,
2013-07-06 08:18:00,89.1,77.0,30.05,WSW,254,2.0,14.0,67,0.00,,,0.00,417,weatherlink.com 1.10,2013-07-06 12:18:00,
2013-07-06 08:33:00,88.9,76.0,30.05,WSW,258,3.0,13.0,66,0.00,,,0.00,429,weatherlink.com 1.10,2013-07-06 12:33:00,
2013-07-06 08:48:00,88.3,75.0,30.05,West,271,6.0,12.0,65,0.00,,,0.00,522,weatherlink.com 1.10,2013-07-06 12:48:00,
2013-07-06 09:03:00,89.6,76.0,30.04,WNW,284,2.0,13.0,64,0.00,,,0.00,570,weatherlink.com 1.10,2013-07-06 13:03:00,
2013-07-06 09:18:00,90.5,76.0,30.04,NW,304,1.0,10.0,62,0.00,,,0.00,531,weatherlink.com 1.10,2013-07-06 13:18:00,
2013-07-06 09:34:00,90.1,76.0,30.03,WNW,302,2.0,16.0,63,0.00,,,0.00,624,weatherlink.com 1.10,2013-07-06 13:34:00,
2013-07-06 09:48:00,90.7,76.0,30.03,WSW,246,6.0,9.0,62,0.00,,,0.00,582,weatherlink.com 1.10,2013-07-06 13:48:00,
2013-07-06 10:04:00,90.2,75.0,30.03,West,267,10.0,13.0,62,0.00,,,0.00,649,weatherlink.com 1.10,2013-07-06 14:04:00,
2013-07-06 10:19:00,91.1,76.0,30.03,West,267,4.0,15.0,62,0.00,,,0.00,673,weatherlink.com 1.10,2013-07-06 14:19:00,
2013-07-06 10:34:00,92.1,75.0,30.02,WNW,302,2.0,10.0,58,0.00,,,0.00,751,weatherlink.com 1.10,2013-07-06 14:34:00,
2013-07-06 10:49:00,92.4,75.0,30.02,West,263,7.0,13.0,58,0.00,,,0.00,763,weatherlink.com 1.10,2013-07-06 14:49:00,
2013-07-06 11:04:00,92.5,76.0,30.02,WNW,286,1.0,16.0,59,0.00,,,0.00,782,weatherlink.com 1.10,2013-07-06 15:04:00,
2013-07-06 11:19:00,93.1,75.0,30.02,West,265,2.0,20.0,56,0.00,,,0.00,821,weatherlink.com 1.10,2013-07-06 15:19:00,
2013-07-06 11:34:00,92.9,75.0,30.02,West,264,6.0,16.0,57,0.00,,,0.00,853,weatherlink.com 1.10,2013-07-06 15:34:00,
2013-07-06 11:49:00,93.1,76.0,30.02,West,269,3.0,15.0,57,0.00,,,0.00,940,weatherlink.com 1.10,2013-07-06 15:49:00,
2013-07-06 12:04:00,93.5,75.0,30.02,West,265,9.0,17.0,56,0.00,,,0.00,1042,weatherlink.com 1.10,2013-07-06 16:04:00,
2013-07-06 12:19:00,93.7,76.0,30.01,WNW,285,2.0,13.0,57,0.00,,,0.00,993,weatherlink.com 1.10,2013-07-06 16:19:00,
2013-07-06 12:34:00,93.1,77.0,30.01,West,259,8.0,14.0,59,0.00,,,0.00,997,weatherlink.com 1.10,2013-07-06 16:34:00,
2013-07-06 12:49:00,92.8,76.0,30.00,WNW,292,2.0,15.0,58,0.00,,,0.00,960,weatherlink.com 1.10,2013-07-06 16:49:00,
2013-07-06 13:04:00,92.5,76.0,30.00,West,270,3.0,16.0,58,0.00,,,0.00,932,weatherlink.com 1.10,2013-07-06 17:04:00,
2013-07-06 13:19:00,94.1,76.0,30.00,West,261,10.0,15.0,56,0.00,,,0.00,919,weatherlink.com 1.10,2013-07-06 17:19:00,
2013-07-06 13:34:00,93.5,74.0,30.00,NW,311,4.0,13.0,54,0.00,,,0.00,914,weatherlink.com 1.10,2013-07-06 17:34:00,
2013-07-06 13:49:00,94.4,75.0,30.00,West,272,8.0,13.0,54,0.00,,,0.00,171,weatherlink.com 1.10,2013-07-06 17:49:00,
2013-07-06 14:19:00,93.1,76.0,29.99,WNW,294,0.0,12.0,57,0.00,,,0.00,137,weatherlink.com 1.10,2013-07-06 18:19:00,
2013-07-06 15:34:00,92.5,74.0,29.99,NNW,328,5.0,13.0,55,0.00,,,0.00,139,weatherlink.com 1.10,2013-07-06 19:34:00,
2013-07-06 16:19:00,92.3,73.0,29.98,West,267,4.0,13.0,54,0.00,,,0.00,70,weatherlink.com 1.10,2013-07-06 20:19:00,
2013-07-06 16:50:00,92.0,73.0,29.97,West,265,8.0,19.0,54,0.00,,,0.00,63,weatherlink.com 1.10,2013-07-06 20:50:00,
2013-07-06 17:04:00,91.6,72.0,29.96,WNW,287,8.0,13.0,53,0.00,,,0.00,54,weatherlink.com 1.10,2013-07-06 21:04:00,
2013-07-06 17:19:00,91.3,72.0,29.96,West,265,13.0,18.0,54,0.00,,,0.00,76,weatherlink.com 1.10,2013-07-06 21:19:00,
2013-07-06 17:34:00,91.0,72.0,29.96,West,275,5.0,15.0,54,0.00,,,0.00,58,weatherlink.com 1.10,2013-07-06 21:34:00,
2013-07-06 17:49:00,90.6,72.0,29.96,WNW,283,8.0,15.0,55,0.00,,,0.00,60,weatherlink.com 1.10,2013-07-06 21:49:00,
2013-07-06 18:19:00,90.3,72.0,29.96,WSW,256,1.0,14.0,55,0.00,,,0.00,49,weatherlink.com 1.10,2013-07-06 22:19:00,
2013-07-06 18:34:00,89.9,72.0,29.96,West,263,4.0,10.0,56,0.00,,,0.00,49,weatherlink.com 1.10,2013-07-06 22:34:00,
2013-07-06 19:04:00,89.3,71.0,29.96,West,271,3.0,16.0,55,0.00,,,0.00,33,weatherlink.com 1.10,2013-07-06 23:04:00,
2013-07-06 19:34:00,88.2,71.0,29.96,WNW,287,3.0,12.0,56,0.00,,,0.00,23,weatherlink.com 1.10,2013-07-06 23:34:00,
2013-07-06 19:49:00,87.9,70.0,29.96,NW,304,4.0,11.0,56,0.00,,,0.00,19,weatherlink.com 1.10,2013-07-06 23:49:00,
2013-07-06 20:20:00,87.0,70.0,29.97,WNW,290,2.0,8.0,57,0.00,,,0.00,0,weatherlink.com 1.10,2013-07-07 00:20:00,
2013-07-06 21:05:00,85.4,69.0,29.98,WNW,286,0.0,7.0,59,0.00,,,0.00,0,weatherlink.com 1.10,2013-07-07 01:05:00,
2013-07-06 21:20:00,85.2,70.0,29.98,WNW,302,4.0,10.0,60,0.00,,,0.00,0,weatherlink.com 1.10,2013-07-07 01:20:00,
2013-07-06 22:05:00,84.0,67.0,29.99,WNW,291,1.0,12.0,56,0.00,,,0.00,0,weatherlink.com 1.10,2013-07-07 02:05:00,
2013-07-06 22:20:00,83.5,66.0,29.99,NW,307,1.0,8.0,56,0.00,,,0.00,0,weatherlink.com 1.10,2013-07-07 02:20:00,
2013-07-06 22:35:00,83.1,66.0,29.98,West,263,1.0,12.0,57,0.00,,,0.00,0,weatherlink.com 1.10,2013-07-07 02:35:00,
2013-07-06 22:50:00,82.6,66.0,29.99,WNW,286,1.0,9.0,58,0.00,,,0.00,0,weatherlink.com 1.10,2013-07-07 02:50:00,
2013-07-06 23:05:00,82.2,65.0,29.99,WNW,284,4.0,7.0,57,0.00,,,0.00,0,weatherlink.com 1.10,2013-07-07 03:05:00,
2013-07-06 23:20:00,81.7,66.0,30.00,West,270,2.0,6.0,59,0.00,,,0.00,0,weatherlink.com 1.10,2013-07-07 03:20:00,
2013-07-06 23:35:00,81.2,66.0,30.00,West,265,1.0,9.0,60,0.00,,,0.00,0,weatherlink.com 1.10,2013-07-07 03:35:00,
2013-07-06 23:50:00,81.0,65.0,29.99,WSW,255,3.0,10.0,59,0.00,,,0.00,0,weatherlink.com 1.10,2013-07-07 03:50:00,